sensor_id;sensor_type;location;lat;lon;timestamp;P1;durP1;ratioP1;P2;durP2;ratioP2
23586;SDS011;11971;51.148;4.104;2023-08-31T00:01:00;138.98;;;42.40;;
23586;SDS011;11971;51.148;4.104;2023-08-31T00:03:28;140.85;;;42.55;;
23586;SDS011;11971;51.148;4.104;2023-08-31T00:05:56;140.77;;;42.97;;
23586;SDS011;11971;51.148;4.104;2023-08-31T00:08:22;136.95;;;41.97;;
23586;SDS011;11971;51.148;4.104;2023-08-31T00:10:54;144.35;;;42.75;;
23586;SDS011;11971;51.148;4.104;2023-08-31T00:13:21;141.25;;;42.42;;
23586;SDS011;11971;51.148;4.104;2023-08-31T00:15:50;146.95;;;42.85;;
23586;SDS011;11971;51.148;4.104;2023-08-31T00:18:17;139.32;;;43.50;;
23586;SDS011;11971;51.148;4.104;2023-08-31T00:20:46;143.00;;;42.67;;
23586;SDS011;11971;51.148;4.104;2023-08-31T00:23:12;139.88;;;42.75;;
23586;SDS011;11971;51.148;4.104;2023-08-31T00:25:39;142.70;;;43.30;;
23586;SDS011;11971;51.148;4.104;2023-08-31T00:28:06;141.43;;;43.40;;
23586;SDS011;11971;51.148;4.104;2023-08-31T00:30:34;139.57;;;43.00;;
23586;SDS011;11971;51.148;4.104;2023-08-31T00:33:03;142.57;;;43.17;;
23586;SDS011;11971;51.148;4.104;2023-08-31T00:35:30;140.57;;;43.25;;
23586;SDS011;11971;51.148;4.104;2023-08-31T00:37:57;147.07;;;43.63;;
23586;SDS011;11971;51.148;4.104;2023-08-31T00:40:24;142.32;;;43.90;;
23586;SDS011;11971;51.148;4.104;2023-08-31T00:42:50;142.13;;;43.40;;
23586;SDS011;11971;51.148;4.104;2023-08-31T00:45:18;142.85;;;44.00;;
23586;SDS011;11971;51.148;4.104;2023-08-31T00:47:45;143.07;;;43.55;;
23586;SDS011;11971;51.148;4.104;2023-08-31T00:50:14;148.10;;;44.20;;
23586;SDS011;11971;51.148;4.104;2023-08-31T00:52:40;144.40;;;44.05;;
23586;SDS011;11971;51.148;4.104;2023-08-31T00:55:09;146.15;;;44.65;;
23586;SDS011;11971;51.148;4.104;2023-08-31T00:57:36;143.38;;;44.53;;
23586;SDS011;11971;51.148;4.104;2023-08-31T01:00:03;143.25;;;44.30;;
23586;SDS011;11971;51.148;4.104;2023-08-31T01:02:33;144.68;;;44.08;;
23586;SDS011;11971;51.148;4.104;2023-08-31T01:05:03;145.98;;;44.95;;
23586;SDS011;11971;51.148;4.104;2023-08-31T01:10:22;149.85;;;44.53;;
23586;SDS011;11971;51.148;4.104;2023-08-31T01:12:56;149.82;;;45.50;;
23586;SDS011;11971;51.148;4.104;2023-08-31T01:15:27;148.15;;;45.35;;
23586;SDS011;11971;51.148;4.104;2023-08-31T01:17:57;142.15;;;45.17;;
23586;SDS011;11971;51.148;4.104;2023-08-31T01:20:26;143.95;;;44.78;;
23586;SDS011;11971;51.148;4.104;2023-08-31T01:23:00;141.20;;;45.08;;
23586;SDS011;11971;51.148;4.104;2023-08-31T01:25:31;151.02;;;45.08;;
23586;SDS011;11971;51.148;4.104;2023-08-31T01:27:58;142.73;;;44.95;;
23586;SDS011;11971;51.148;4.104;2023-08-31T01:30:25;144.70;;;45.50;;
23586;SDS011;11971;51.148;4.104;2023-08-31T01:32:56;148.15;;;45.58;;
23586;SDS011;11971;51.148;4.104;2023-08-31T01:35:22;142.23;;;44.17;;
23586;SDS011;11971;51.148;4.104;2023-08-31T01:37:50;145.80;;;45.40;;
23586;SDS011;11971;51.148;4.104;2023-08-31T01:40:20;148.63;;;45.25;;
23586;SDS011;11971;51.148;4.104;2023-08-31T01:42:51;145.10;;;45.25;;
23586;SDS011;11971;51.148;4.104;2023-08-31T01:45:18;143.73;;;44.88;;
23586;SDS011;11971;51.148;4.104;2023-08-31T01:47:47;142.38;;;45.25;;
23586;SDS011;11971;51.148;4.104;2023-08-31T01:50:13;144.65;;;45.40;;
23586;SDS011;11971;51.148;4.104;2023-08-31T01:52:40;143.93;;;45.78;;
23586;SDS011;11971;51.148;4.104;2023-08-31T01:55:07;146.35;;;45.78;;
23586;SDS011;11971;51.148;4.104;2023-08-31T01:57:34;147.35;;;45.35;;
23586;SDS011;11971;51.148;4.104;2023-08-31T02:00:03;146.00;;;45.88;;
23586;SDS011;11971;51.148;4.104;2023-08-31T02:02:31;146.57;;;45.45;;
23586;SDS011;11971;51.148;4.104;2023-08-31T02:04:58;149.57;;;46.30;;
23586;SDS011;11971;51.148;4.104;2023-08-31T02:07:26;147.30;;;45.27;;
23586;SDS011;11971;51.148;4.104;2023-08-31T02:09:53;148.18;;;46.03;;
23586;SDS011;11971;51.148;4.104;2023-08-31T02:12:20;145.88;;;45.25;;
23586;SDS011;11971;51.148;4.104;2023-08-31T02:14:47;152.55;;;46.08;;
23586;SDS011;11971;51.148;4.104;2023-08-31T02:17:15;148.93;;;45.88;;
23586;SDS011;11971;51.148;4.104;2023-08-31T02:19:42;147.13;;;45.63;;
23586;SDS011;11971;51.148;4.104;2023-08-31T02:22:08;142.88;;;44.53;;
23586;SDS011;11971;51.148;4.104;2023-08-31T02:24:35;147.52;;;45.08;;
23586;SDS011;11971;51.148;4.104;2023-08-31T02:27:03;148.52;;;45.55;;
23586;SDS011;11971;51.148;4.104;2023-08-31T02:29:32;148.52;;;45.15;;
23586;SDS011;11971;51.148;4.104;2023-08-31T02:31:59;150.25;;;45.78;;
23586;SDS011;11971;51.148;4.104;2023-08-31T02:34:27;150.63;;;46.15;;
23586;SDS011;11971;51.148;4.104;2023-08-31T02:36:58;146.80;;;45.85;;
23586;SDS011;11971;51.148;4.104;2023-08-31T02:39:24;147.73;;;45.47;;
23586;SDS011;11971;51.148;4.104;2023-08-31T02:41:51;147.73;;;45.55;;
23586;SDS011;11971;51.148;4.104;2023-08-31T02:44:18;153.43;;;45.30;;
23586;SDS011;11971;51.148;4.104;2023-08-31T02:46:45;149.80;;;46.13;;
23586;SDS011;11971;51.148;4.104;2023-08-31T02:49:13;147.63;;;45.38;;
23586;SDS011;11971;51.148;4.104;2023-08-31T02:51:41;152.13;;;45.53;;
23586;SDS011;11971;51.148;4.104;2023-08-31T02:54:08;146.05;;;45.50;;
23586;SDS011;11971;51.148;4.104;2023-08-31T02:56:35;145.30;;;45.70;;
23586;SDS011;11971;51.148;4.104;2023-08-31T02:59:02;147.43;;;45.08;;
23586;SDS011;11971;51.148;4.104;2023-08-31T03:01:28;145.82;;;45.17;;
23586;SDS011;11971;51.148;4.104;2023-08-31T03:03:55;149.05;;;45.58;;
23586;SDS011;11971;51.148;4.104;2023-08-31T03:06:22;147.77;;;45.63;;
23586;SDS011;11971;51.148;4.104;2023-08-31T03:08:50;149.48;;;45.95;;
23586;SDS011;11971;51.148;4.104;2023-08-31T03:11:18;147.70;;;45.20;;
23586;SDS011;11971;51.148;4.104;2023-08-31T03:13:45;151.85;;;45.53;;
23586;SDS011;11971;51.148;4.104;2023-08-31T03:16:12;146.60;;;45.05;;
23586;SDS011;11971;51.148;4.104;2023-08-31T03:18:39;149.25;;;46.10;;
23586;SDS011;11971;51.148;4.104;2023-08-31T03:21:05;148.68;;;45.35;;
23586;SDS011;11971;51.148;4.104;2023-08-31T03:23:33;151.93;;;45.65;;
23586;SDS011;11971;51.148;4.104;2023-08-31T03:26:05;149.20;;;45.42;;
23586;SDS011;11971;51.148;4.104;2023-08-31T03:28:33;149.85;;;45.85;;
23586;SDS011;11971;51.148;4.104;2023-08-31T03:31:00;150.82;;;45.40;;
23586;SDS011;11971;51.148;4.104;2023-08-31T03:33:27;148.43;;;45.80;;
23586;SDS011;11971;51.148;4.104;2023-08-31T03:35:54;148.27;;;45.90;;
23586;SDS011;11971;51.148;4.104;2023-08-31T03:38:20;145.50;;;46.22;;
23586;SDS011;11971;51.148;4.104;2023-08-31T03:40:53;144.77;;;44.65;;
23586;SDS011;11971;51.148;4.104;2023-08-31T03:43:22;146.00;;;45.33;;
23586;SDS011;11971;51.148;4.104;2023-08-31T03:45:49;144.98;;;44.70;;
23586;SDS011;11971;51.148;4.104;2023-08-31T03:48:20;150.68;;;45.05;;
23586;SDS011;11971;51.148;4.104;2023-08-31T03:50:48;146.15;;;46.05;;
23586;SDS011;11971;51.148;4.104;2023-08-31T03:53:15;147.68;;;46.03;;
23586;SDS011;11971;51.148;4.104;2023-08-31T03:55:42;146.63;;;45.25;;
23586;SDS011;11971;51.148;4.104;2023-08-31T03:58:09;143.93;;;44.80;;
23586;SDS011;11971;51.148;4.104;2023-08-31T04:00:37;152.60;;;45.08;;
23586;SDS011;11971;51.148;4.104;2023-08-31T04:03:04;142.88;;;44.65;;
23586;SDS011;11971;51.148;4.104;2023-08-31T04:05:31;146.48;;;45.15;;
23586;SDS011;11971;51.148;4.104;2023-08-31T04:07:59;147.93;;;44.97;;
23586;SDS011;11971;51.148;4.104;2023-08-31T04:10:25;146.45;;;44.38;;
23586;SDS011;11971;51.148;4.104;2023-08-31T04:12:54;147.20;;;44.72;;
23586;SDS011;11971;51.148;4.104;2023-08-31T04:15:21;145.18;;;43.40;;
23586;SDS011;11971;51.148;4.104;2023-08-31T04:17:49;143.32;;;43.50;;
23586;SDS011;11971;51.148;4.104;2023-08-31T04:20:16;142.48;;;43.20;;
23586;SDS011;11971;51.148;4.104;2023-08-31T04:22:43;145.35;;;43.92;;
23586;SDS011;11971;51.148;4.104;2023-08-31T04:25:09;148.70;;;44.58;;
23586;SDS011;11971;51.148;4.104;2023-08-31T04:27:36;143.68;;;44.22;;
23586;SDS011;11971;51.148;4.104;2023-08-31T04:30:05;147.23;;;44.07;;
23586;SDS011;11971;51.148;4.104;2023-08-31T04:32:33;145.25;;;43.83;;
23586;SDS011;11971;51.148;4.104;2023-08-31T04:35:01;144.80;;;42.88;;
23586;SDS011;11971;51.148;4.104;2023-08-31T04:37:30;144.25;;;43.75;;
23586;SDS011;11971;51.148;4.104;2023-08-31T04:39:57;144.05;;;43.80;;
23586;SDS011;11971;51.148;4.104;2023-08-31T04:42:24;148.00;;;44.45;;
23586;SDS011;11971;51.148;4.104;2023-08-31T04:44:51;144.38;;;43.30;;
23586;SDS011;11971;51.148;4.104;2023-08-31T04:47:17;147.40;;;44.30;;
23586;SDS011;11971;51.148;4.104;2023-08-31T04:49:44;150.07;;;44.45;;
23586;SDS011;11971;51.148;4.104;2023-08-31T04:52:12;144.15;;;44.00;;
23586;SDS011;11971;51.148;4.104;2023-08-31T04:54:39;152.68;;;45.28;;
23586;SDS011;11971;51.148;4.104;2023-08-31T04:57:06;148.35;;;44.53;;
23586;SDS011;11971;51.148;4.104;2023-08-31T04:59:33;148.77;;;44.00;;
23586;SDS011;11971;51.148;4.104;2023-08-31T05:02:00;147.27;;;43.75;;
23586;SDS011;11971;51.148;4.104;2023-08-31T05:04:26;147.88;;;44.63;;
23586;SDS011;11971;51.148;4.104;2023-08-31T05:06:53;143.38;;;43.92;;
23586;SDS011;11971;51.148;4.104;2023-08-31T05:09:23;152.63;;;44.00;;
23586;SDS011;11971;51.148;4.104;2023-08-31T05:11:51;148.30;;;44.13;;
23586;SDS011;11971;51.148;4.104;2023-08-31T05:14:18;149.13;;;44.95;;
23586;SDS011;11971;51.148;4.104;2023-08-31T05:16:45;144.02;;;44.42;;
23586;SDS011;11971;51.148;4.104;2023-08-31T05:19:12;148.23;;;44.33;;
23586;SDS011;11971;51.148;4.104;2023-08-31T05:21:39;151.95;;;45.03;;
23586;SDS011;11971;51.148;4.104;2023-08-31T05:24:06;146.85;;;44.58;;
23586;SDS011;11971;51.148;4.104;2023-08-31T05:26:34;151.80;;;44.83;;
23586;SDS011;11971;51.148;4.104;2023-08-31T05:29:01;150.07;;;44.23;;
23586;SDS011;11971;51.148;4.104;2023-08-31T05:31:29;163.38;;;44.40;;
23586;SDS011;11971;51.148;4.104;2023-08-31T05:33:55;147.98;;;44.88;;
23586;SDS011;11971;51.148;4.104;2023-08-31T05:36:22;148.88;;;44.35;;
23586;SDS011;11971;51.148;4.104;2023-08-31T05:38:50;147.93;;;44.70;;
23586;SDS011;11971;51.148;4.104;2023-08-31T05:41:17;153.27;;;45.55;;
23586;SDS011;11971;51.148;4.104;2023-08-31T05:43:45;153.55;;;45.25;;
23586;SDS011;11971;51.148;4.104;2023-08-31T05:46:12;151.55;;;45.55;;
23586;SDS011;11971;51.148;4.104;2023-08-31T05:48:39;155.43;;;45.50;;
23586;SDS011;11971;51.148;4.104;2023-08-31T05:51:05;151.00;;;44.67;;
23586;SDS011;11971;51.148;4.104;2023-08-31T05:53:32;151.23;;;44.53;;
23586;SDS011;11971;51.148;4.104;2023-08-31T05:56:00;148.38;;;44.50;;
23586;SDS011;11971;51.148;4.104;2023-08-31T05:58:30;148.38;;;44.70;;
23586;SDS011;11971;51.148;4.104;2023-08-31T06:00:58;151.18;;;45.85;;
23586;SDS011;11971;51.148;4.104;2023-08-31T06:03:26;153.45;;;45.70;;
23586;SDS011;11971;51.148;4.104;2023-08-31T06:05:53;148.68;;;44.85;;
23586;SDS011;11971;51.148;4.104;2023-08-31T06:08:21;152.82;;;44.95;;
23586;SDS011;11971;51.148;4.104;2023-08-31T06:10:48;148.52;;;44.38;;
23586;SDS011;11971;51.148;4.104;2023-08-31T06:13:15;157.50;;;46.15;;
23586;SDS011;11971;51.148;4.104;2023-08-31T06:15:42;159.73;;;45.42;;
23586;SDS011;11971;51.148;4.104;2023-08-31T06:18:18;148.45;;;45.40;;
23586;SDS011;11971;51.148;4.104;2023-08-31T06:20:46;148.30;;;43.42;;
23586;SDS011;11971;51.148;4.104;2023-08-31T06:23:15;144.02;;;43.47;;
23586;SDS011;11971;51.148;4.104;2023-08-31T06:25:42;147.50;;;44.13;;
23586;SDS011;11971;51.148;4.104;2023-08-31T06:28:10;148.50;;;44.03;;
23586;SDS011;11971;51.148;4.104;2023-08-31T06:30:37;146.65;;;44.15;;
23586;SDS011;11971;51.148;4.104;2023-08-31T06:33:05;157.18;;;45.13;;
23586;SDS011;11971;51.148;4.104;2023-08-31T06:35:33;153.18;;;44.55;;
23586;SDS011;11971;51.148;4.104;2023-08-31T06:38:02;155.60;;;44.20;;
23586;SDS011;11971;51.148;4.104;2023-08-31T06:40:29;147.57;;;43.90;;
23586;SDS011;11971;51.148;4.104;2023-08-31T06:42:56;154.13;;;44.88;;
23586;SDS011;11971;51.148;4.104;2023-08-31T06:45:23;153.65;;;44.25;;
23586;SDS011;11971;51.148;4.104;2023-08-31T06:47:50;146.90;;;44.22;;
23586;SDS011;11971;51.148;4.104;2023-08-31T06:50:17;149.48;;;44.22;;
23586;SDS011;11971;51.148;4.104;2023-08-31T06:52:45;147.45;;;44.15;;
23586;SDS011;11971;51.148;4.104;2023-08-31T06:55:11;156.90;;;44.50;;
23586;SDS011;11971;51.148;4.104;2023-08-31T06:57:39;150.48;;;43.78;;
23586;SDS011;11971;51.148;4.104;2023-08-31T07:00:07;155.93;;;44.85;;
23586;SDS011;11971;51.148;4.104;2023-08-31T07:02:39;149.13;;;44.15;;
23586;SDS011;11971;51.148;4.104;2023-08-31T07:05:06;148.60;;;44.08;;
23586;SDS011;11971;51.148;4.104;2023-08-31T07:07:33;146.93;;;43.80;;
23586;SDS011;11971;51.148;4.104;2023-08-31T07:10:02;150.15;;;43.90;;
23586;SDS011;11971;51.148;4.104;2023-08-31T07:15:07;156.25;;;44.60;;
23586;SDS011;11971;51.148;4.104;2023-08-31T07:17:39;150.43;;;44.15;;
23586;SDS011;11971;51.148;4.104;2023-08-31T07:25:43;150.52;;;44.78;;
23586;SDS011;11971;51.148;4.104;2023-08-31T07:28:10;157.57;;;44.72;;
23586;SDS011;11971;51.148;4.104;2023-08-31T07:33:28;155.25;;;44.72;;
23586;SDS011;11971;51.148;4.104;2023-08-31T07:35:55;156.00;;;44.55;;
23586;SDS011;11971;51.148;4.104;2023-08-31T07:38:22;162.30;;;44.33;;
23586;SDS011;11971;51.148;4.104;2023-08-31T07:40:50;150.15;;;44.17;;
23586;SDS011;11971;51.148;4.104;2023-08-31T07:43:17;158.93;;;45.37;;
23586;SDS011;11971;51.148;4.104;2023-08-31T07:45:44;155.55;;;44.78;;
23586;SDS011;11971;51.148;4.104;2023-08-31T07:48:11;158.80;;;45.55;;
23586;SDS011;11971;51.148;4.104;2023-08-31T07:50:40;153.80;;;45.28;;
23586;SDS011;11971;51.148;4.104;2023-08-31T07:53:06;158.48;;;45.38;;
23586;SDS011;11971;51.148;4.104;2023-08-31T07:55:33;160.93;;;45.08;;
23586;SDS011;11971;51.148;4.104;2023-08-31T07:58:02;153.30;;;44.60;;
23586;SDS011;11971;51.148;4.104;2023-08-31T08:00:38;156.07;;;45.15;;
23586;SDS011;11971;51.148;4.104;2023-08-31T08:03:05;151.65;;;44.08;;
23586;SDS011;11971;51.148;4.104;2023-08-31T08:05:31;157.82;;;44.95;;
23586;SDS011;11971;51.148;4.104;2023-08-31T08:07:58;154.98;;;44.20;;
23586;SDS011;11971;51.148;4.104;2023-08-31T08:10:25;157.63;;;44.92;;
23586;SDS011;11971;51.148;4.104;2023-08-31T08:12:52;157.57;;;44.63;;
23586;SDS011;11971;51.148;4.104;2023-08-31T08:15:22;160.55;;;44.60;;
23586;SDS011;11971;51.148;4.104;2023-08-31T08:17:49;152.90;;;44.20;;
23586;SDS011;11971;51.148;4.104;2023-08-31T08:20:16;158.27;;;44.08;;
23586;SDS011;11971;51.148;4.104;2023-08-31T08:22:43;159.88;;;44.72;;
23586;SDS011;11971;51.148;4.104;2023-08-31T08:25:10;160.70;;;44.35;;
23586;SDS011;11971;51.148;4.104;2023-08-31T08:27:36;154.15;;;43.33;;
23586;SDS011;11971;51.148;4.104;2023-08-31T08:30:05;152.20;;;42.88;;
23586;SDS011;11971;51.148;4.104;2023-08-31T08:32:34;155.82;;;43.20;;
23586;SDS011;11971;51.148;4.104;2023-08-31T08:35:01;157.47;;;43.87;;
23586;SDS011;11971;51.148;4.104;2023-08-31T08:37:28;152.85;;;43.25;;
23586;SDS011;11971;51.148;4.104;2023-08-31T08:39:57;150.95;;;43.28;;
23586;SDS011;11971;51.148;4.104;2023-08-31T08:42:24;155.98;;;43.35;;
23586;SDS011;11971;51.148;4.104;2023-08-31T08:44:51;153.82;;;43.53;;
23586;SDS011;11971;51.148;4.104;2023-08-31T08:47:18;153.82;;;43.70;;
23586;SDS011;11971;51.148;4.104;2023-08-31T08:49:47;152.07;;;43.20;;
23586;SDS011;11971;51.148;4.104;2023-08-31T08:52:14;150.38;;;43.10;;
23586;SDS011;11971;51.148;4.104;2023-08-31T08:54:41;158.02;;;43.00;;
23586;SDS011;11971;51.148;4.104;2023-08-31T08:57:08;157.90;;;43.58;;
23586;SDS011;11971;51.148;4.104;2023-08-31T08:59:35;151.93;;;42.70;;
23586;SDS011;11971;51.148;4.104;2023-08-31T09:02:10;156.70;;;43.15;;
23586;SDS011;11971;51.148;4.104;2023-08-31T09:04:37;152.57;;;43.05;;
23586;SDS011;11971;51.148;4.104;2023-08-31T09:07:05;151.30;;;42.70;;
23586;SDS011;11971;51.148;4.104;2023-08-31T09:09:32;154.23;;;42.75;;
23586;SDS011;11971;51.148;4.104;2023-08-31T09:12:05;155.70;;;43.47;;
23586;SDS011;11971;51.148;4.104;2023-08-31T09:14:33;152.95;;;43.38;;
23586;SDS011;11971;51.148;4.104;2023-08-31T09:17:01;156.55;;;44.35;;
23586;SDS011;11971;51.148;4.104;2023-08-31T09:19:28;156.68;;;43.47;;
23586;SDS011;11971;51.148;4.104;2023-08-31T09:21:55;155.38;;;42.67;;
23586;SDS011;11971;51.148;4.104;2023-08-31T09:24:24;153.73;;;43.03;;
23586;SDS011;11971;51.148;4.104;2023-08-31T09:26:53;162.57;;;42.97;;
23586;SDS011;11971;51.148;4.104;2023-08-31T09:29:21;150.88;;;42.40;;
23586;SDS011;11971;51.148;4.104;2023-08-31T09:31:48;152.07;;;42.17;;
23586;SDS011;11971;51.148;4.104;2023-08-31T09:34:15;152.88;;;42.55;;
23586;SDS011;11971;51.148;4.104;2023-08-31T09:36:42;152.93;;;43.15;;
23586;SDS011;11971;51.148;4.104;2023-08-31T09:39:09;156.50;;;42.38;;
23586;SDS011;11971;51.148;4.104;2023-08-31T09:41:41;149.18;;;42.22;;
23586;SDS011;11971;51.148;4.104;2023-08-31T09:44:19;155.35;;;42.38;;
23586;SDS011;11971;51.148;4.104;2023-08-31T09:46:46;150.50;;;42.42;;
23586;SDS011;11971;51.148;4.104;2023-08-31T09:49:15;154.63;;;42.13;;
23586;SDS011;11971;51.148;4.104;2023-08-31T09:51:43;157.27;;;42.40;;
23586;SDS011;11971;51.148;4.104;2023-08-31T09:54:12;157.50;;;42.47;;
23586;SDS011;11971;51.148;4.104;2023-08-31T09:56:41;151.95;;;42.42;;
23586;SDS011;11971;51.148;4.104;2023-08-31T09:59:09;153.40;;;42.60;;
23586;SDS011;11971;51.148;4.104;2023-08-31T10:01:36;156.30;;;43.13;;
23586;SDS011;11971;51.148;4.104;2023-08-31T10:04:04;156.88;;;43.45;;
23586;SDS011;11971;51.148;4.104;2023-08-31T10:06:33;154.02;;;42.67;;
23586;SDS011;11971;51.148;4.104;2023-08-31T10:09:01;156.88;;;42.72;;
23586;SDS011;11971;51.148;4.104;2023-08-31T10:11:28;156.02;;;42.88;;
23586;SDS011;11971;51.148;4.104;2023-08-31T10:13:57;155.00;;;42.33;;
23586;SDS011;11971;51.148;4.104;2023-08-31T10:16:24;154.32;;;43.17;;
23586;SDS011;11971;51.148;4.104;2023-08-31T10:18:51;159.43;;;43.20;;
23586;SDS011;11971;51.148;4.104;2023-08-31T10:21:20;155.15;;;43.08;;
23586;SDS011;11971;51.148;4.104;2023-08-31T10:23:48;160.57;;;42.88;;
23586;SDS011;11971;51.148;4.104;2023-08-31T10:26:22;155.43;;;42.97;;
23586;SDS011;11971;51.148;4.104;2023-08-31T10:28:50;154.68;;;42.42;;
23586;SDS011;11971;51.148;4.104;2023-08-31T10:31:19;157.25;;;42.50;;
23586;SDS011;11971;51.148;4.104;2023-08-31T10:33:47;153.80;;;42.28;;
23586;SDS011;11971;51.148;4.104;2023-08-31T10:36:22;155.77;;;42.33;;
23586;SDS011;11971;51.148;4.104;2023-08-31T10:39:04;154.63;;;42.85;;
23586;SDS011;11971;51.148;4.104;2023-08-31T10:41:33;154.23;;;42.65;;
23586;SDS011;11971;51.148;4.104;2023-08-31T10:44:00;154.20;;;43.13;;
23586;SDS011;11971;51.148;4.104;2023-08-31T10:46:29;157.27;;;42.88;;
23586;SDS011;11971;51.148;4.104;2023-08-31T10:48:58;156.07;;;42.85;;
23586;SDS011;11971;51.148;4.104;2023-08-31T10:51:26;154.97;;;42.63;;
23586;SDS011;11971;51.148;4.104;2023-08-31T10:54:09;155.32;;;42.65;;
23586;SDS011;11971;51.148;4.104;2023-08-31T10:56:54;156.25;;;42.50;;
23586;SDS011;11971;51.148;4.104;2023-08-31T10:59:40;155.02;;;42.45;;
23586;SDS011;11971;51.148;4.104;2023-08-31T11:02:09;157.10;;;42.90;;
23586;SDS011;11971;51.148;4.104;2023-08-31T11:04:52;158.15;;;43.22;;
23586;SDS011;11971;51.148;4.104;2023-08-31T11:07:19;156.07;;;42.65;;
23586;SDS011;11971;51.148;4.104;2023-08-31T11:09:50;156.80;;;42.85;;
23586;SDS011;11971;51.148;4.104;2023-08-31T11:12:16;153.88;;;42.95;;
23586;SDS011;11971;51.148;4.104;2023-08-31T11:14:43;155.93;;;42.92;;
23586;SDS011;11971;51.148;4.104;2023-08-31T11:17:11;156.00;;;42.85;;
23586;SDS011;11971;51.148;4.104;2023-08-31T11:19:38;155.13;;;43.38;;
23586;SDS011;11971;51.148;4.104;2023-08-31T11:22:05;156.05;;;43.13;;
23586;SDS011;11971;51.148;4.104;2023-08-31T11:24:34;157.13;;;43.15;;
23586;SDS011;11971;51.148;4.104;2023-08-31T11:27:01;157.20;;;43.60;;
23586;SDS011;11971;51.148;4.104;2023-08-31T11:29:29;156.18;;;42.53;;
23586;SDS011;11971;51.148;4.104;2023-08-31T11:31:56;156.35;;;43.08;;
23586;SDS011;11971;51.148;4.104;2023-08-31T11:34:26;155.60;;;42.75;;
23586;SDS011;11971;51.148;4.104;2023-08-31T11:36:53;156.20;;;42.67;;
23586;SDS011;11971;51.148;4.104;2023-08-31T11:39:21;156.80;;;43.00;;
23586;SDS011;11971;51.148;4.104;2023-08-31T11:41:49;152.93;;;42.25;;
23586;SDS011;11971;51.148;4.104;2023-08-31T11:44:16;155.93;;;42.25;;
23586;SDS011;11971;51.148;4.104;2023-08-31T11:46:44;154.88;;;42.88;;
23586;SDS011;11971;51.148;4.104;2023-08-31T11:49:13;153.40;;;42.42;;
23586;SDS011;11971;51.148;4.104;2023-08-31T11:51:42;157.23;;;43.08;;
23586;SDS011;11971;51.148;4.104;2023-08-31T11:54:09;156.98;;;43.08;;
23586;SDS011;11971;51.148;4.104;2023-08-31T11:56:39;158.35;;;43.20;;
23586;SDS011;11971;51.148;4.104;2023-08-31T11:59:08;154.05;;;43.03;;
23586;SDS011;11971;51.148;4.104;2023-08-31T12:01:40;156.57;;;43.47;;
23586;SDS011;11971;51.148;4.104;2023-08-31T12:04:11;154.40;;;42.85;;
23586;SDS011;11971;51.148;4.104;2023-08-31T12:06:39;156.15;;;43.03;;
23586;SDS011;11971;51.148;4.104;2023-08-31T12:09:08;156.65;;;43.15;;
23586;SDS011;11971;51.148;4.104;2023-08-31T12:11:35;155.63;;;43.40;;
23586;SDS011;11971;51.148;4.104;2023-08-31T12:14:02;157.00;;;44.08;;
23586;SDS011;11971;51.148;4.104;2023-08-31T12:16:33;156.83;;;43.07;;
23586;SDS011;11971;51.148;4.104;2023-08-31T12:19:04;155.85;;;43.38;;
23586;SDS011;11971;51.148;4.104;2023-08-31T12:21:31;156.05;;;42.97;;
23586;SDS011;11971;51.148;4.104;2023-08-31T12:23:58;157.25;;;43.17;;
23586;SDS011;11971;51.148;4.104;2023-08-31T12:26:26;156.98;;;43.15;;
23586;SDS011;11971;51.148;4.104;2023-08-31T12:28:53;156.23;;;43.03;;
23586;SDS011;11971;51.148;4.104;2023-08-31T12:31:21;158.10;;;43.28;;
23586;SDS011;11971;51.148;4.104;2023-08-31T12:33:48;155.40;;;42.83;;
23586;SDS011;11971;51.148;4.104;2023-08-31T12:36:15;163.85;;;43.42;;
23586;SDS011;11971;51.148;4.104;2023-08-31T12:38:42;160.95;;;43.40;;
23586;SDS011;11971;51.148;4.104;2023-08-31T12:41:11;157.60;;;43.47;;
23586;SDS011;11971;51.148;4.104;2023-08-31T12:43:39;159.95;;;42.95;;
23586;SDS011;11971;51.148;4.104;2023-08-31T12:46:07;158.00;;;43.15;;
23586;SDS011;11971;51.148;4.104;2023-08-31T12:48:51;157.50;;;42.85;;
23586;SDS011;11971;51.148;4.104;2023-08-31T12:51:19;158.43;;;43.13;;
23586;SDS011;11971;51.148;4.104;2023-08-31T12:53:45;155.63;;;42.60;;
23586;SDS011;11971;51.148;4.104;2023-08-31T12:56:13;164.05;;;42.75;;
23586;SDS011;11971;51.148;4.104;2023-08-31T12:58:48;154.85;;;42.72;;
23586;SDS011;11971;51.148;4.104;2023-08-31T13:01:15;158.52;;;42.83;;
23586;SDS011;11971;51.148;4.104;2023-08-31T13:03:43;154.93;;;42.38;;
23586;SDS011;11971;51.148;4.104;2023-08-31T13:06:09;153.88;;;42.40;;
23586;SDS011;11971;51.148;4.104;2023-08-31T13:08:36;158.30;;;42.90;;
23586;SDS011;11971;51.148;4.104;2023-08-31T13:11:03;153.88;;;42.38;;
23586;SDS011;11971;51.148;4.104;2023-08-31T13:13:30;155.40;;;42.30;;
23586;SDS011;11971;51.148;4.104;2023-08-31T13:16:03;155.35;;;42.20;;
23586;SDS011;11971;51.148;4.104;2023-08-31T13:18:30;150.13;;;41.67;;
23586;SDS011;11971;51.148;4.104;2023-08-31T13:20:57;153.55;;;42.08;;
23586;SDS011;11971;51.148;4.104;2023-08-31T13:23:24;151.77;;;42.00;;
23586;SDS011;11971;51.148;4.104;2023-08-31T13:25:51;152.65;;;41.88;;
23586;SDS011;11971;51.148;4.104;2023-08-31T13:28:18;161.82;;;42.20;;
23586;SDS011;11971;51.148;4.104;2023-08-31T13:30:45;153.40;;;42.15;;
23586;SDS011;11971;51.148;4.104;2023-08-31T13:33:14;159.27;;;42.65;;
23586;SDS011;11971;51.148;4.104;2023-08-31T13:35:41;155.43;;;42.70;;
23586;SDS011;11971;51.148;4.104;2023-08-31T13:38:08;164.13;;;42.75;;
23586;SDS011;11971;51.148;4.104;2023-08-31T13:40:35;161.63;;;42.90;;
23586;SDS011;11971;51.148;4.104;2023-08-31T13:43:03;157.73;;;43.25;;
23586;SDS011;11971;51.148;4.104;2023-08-31T13:45:30;159.88;;;43.40;;
23586;SDS011;11971;51.148;4.104;2023-08-31T13:48:01;162.38;;;43.58;;
23586;SDS011;11971;51.148;4.104;2023-08-31T13:50:30;162.52;;;44.13;;
23586;SDS011;11971;51.148;4.104;2023-08-31T13:52:57;157.88;;;43.65;;
23586;SDS011;11971;51.148;4.104;2023-08-31T13:55:24;158.30;;;43.22;;
23586;SDS011;11971;51.148;4.104;2023-08-31T13:57:52;157.00;;;43.08;;
23586;SDS011;11971;51.148;4.104;2023-08-31T14:00:19;159.35;;;43.45;;
23586;SDS011;11971;51.148;4.104;2023-08-31T14:02:46;162.93;;;43.83;;
23586;SDS011;11971;51.148;4.104;2023-08-31T14:05:13;160.65;;;43.42;;
23586;SDS011;11971;51.148;4.104;2023-08-31T14:07:42;157.27;;;43.33;;
23586;SDS011;11971;51.148;4.104;2023-08-31T14:10:09;158.63;;;43.67;;
23586;SDS011;11971;51.148;4.104;2023-08-31T14:12:36;156.38;;;43.15;;
23586;SDS011;11971;51.148;4.104;2023-08-31T14:15:04;158.02;;;43.10;;
23586;SDS011;11971;51.148;4.104;2023-08-31T14:17:32;157.73;;;43.30;;
23586;SDS011;11971;51.148;4.104;2023-08-31T14:19:59;161.93;;;42.92;;
23586;SDS011;11971;51.148;4.104;2023-08-31T14:22:26;159.52;;;43.25;;
23586;SDS011;11971;51.148;4.104;2023-08-31T14:24:55;161.32;;;42.85;;
23586;SDS011;11971;51.148;4.104;2023-08-31T14:27:24;155.88;;;42.83;;